createdAt,value
2017-05-26T00:00:13.397Z,3.88
2017-05-26T00:02:41.706Z,3.77
2017-05-26T00:05:10.001Z,4.00
2017-05-26T00:07:38.318Z,6.85
2017-05-26T00:10:06.606Z,3.55
2017-05-26T00:12:34.922Z,3.53
2017-05-26T00:15:03.248Z,3.23
2017-05-26T00:17:31.555Z,3.60
2017-05-26T00:19:59.860Z,2.98
2017-05-26T00:22:28.187Z,3.37
2017-05-26T00:24:56.502Z,3.40
2017-05-26T00:27:24.817Z,4.38
2017-05-26T00:29:53.147Z,3.70
2017-05-26T00:32:21.433Z,4.43
2017-05-26T00:34:49.735Z,3.12
2017-05-26T00:37:18.078Z,3.50
2017-05-26T00:39:46.384Z,3.08
2017-05-26T00:42:14.670Z,3.77
2017-05-26T00:44:42.989Z,3.93
2017-05-26T00:47:11.302Z,3.83
2017-05-26T00:49:39.602Z,4.20
2017-05-26T00:52:07.938Z,4.25
2017-05-26T00:54:36.238Z,4.27
2017-05-26T00:57:04.537Z,3.63
2017-05-26T00:59:32.863Z,3.33
2017-05-26T01:02:01.164Z,4.38
2017-05-26T01:04:29.450Z,4.48
2017-05-26T01:06:57.762Z,4.28
2017-05-26T01:09:26.050Z,5.87
2017-05-26T01:11:54.372Z,3.98
2017-05-26T01:14:22.846Z,4.33
2017-05-26T01:16:51.131Z,3.68
2017-05-26T01:19:19.458Z,4.07
2017-05-26T01:21:47.765Z,4.78
2017-05-26T01:24:16.065Z,4.12
2017-05-26T01:26:44.390Z,4.47
2017-05-26T01:29:12.691Z,5.12
2017-05-26T01:31:41.302Z,4.13
2017-05-26T01:34:09.804Z,5.38
2017-05-26T01:36:38.114Z,4.78
2017-05-26T01:39:06.407Z,4.78
2017-05-26T01:41:34.730Z,3.85
2017-05-26T01:44:03.096Z,4.35
2017-05-26T01:46:31.388Z,4.35
2017-05-26T01:48:59.714Z,4.60
2017-05-26T01:51:28.007Z,4.42
2017-05-26T01:53:56.299Z,4.70
2017-05-26T01:56:24.630Z,4.38
2017-05-26T01:58:52.930Z,4.08
2017-05-26T02:01:21.233Z,5.65
2017-05-26T02:03:49.546Z,7.77
2017-05-26T02:06:17.854Z,4.23
2017-05-26T02:08:46.146Z,4.93
2017-05-26T02:11:14.501Z,5.15
2017-05-26T02:13:42.807Z,5.02
2017-05-26T02:16:11.119Z,5.50
2017-05-26T02:18:39.442Z,5.40
2017-05-26T02:21:07.738Z,4.92
2017-05-26T02:23:36.029Z,5.00
2017-05-26T02:26:04.358Z,5.03
2017-05-26T02:28:32.650Z,7.65
2017-05-26T02:31:00.940Z,5.93
2017-05-26T02:33:29.282Z,5.15
2017-05-26T02:35:57.588Z,5.02
2017-05-26T02:38:25.891Z,5.80
2017-05-26T02:40:54.223Z,5.45
2017-05-26T02:43:22.517Z,5.47
2017-05-26T02:45:50.810Z,5.05
2017-05-26T02:48:19.124Z,4.80
2017-05-26T02:50:47.423Z,5.03
2017-05-26T02:53:15.712Z,5.83
2017-05-26T02:55:44.046Z,5.53
2017-05-26T02:58:12.473Z,5.57
2017-05-26T03:00:40.766Z,6.33
2017-05-26T03:03:09.087Z,5.65
2017-05-26T03:05:37.402Z,5.68
2017-05-26T03:08:05.708Z,5.45
2017-05-26T03:10:34.024Z,5.47
2017-05-26T03:13:02.323Z,5.57
2017-05-26T03:15:30.610Z,5.98
2017-05-26T03:17:58.948Z,5.53
2017-05-26T03:20:26.470Z,5.07
2017-05-26T03:22:54.765Z,5.78
2017-05-26T03:25:23.086Z,5.00
2017-05-26T03:27:51.382Z,5.53
2017-05-26T03:30:19.685Z,5.30
2017-05-26T03:32:47.995Z,7.62
2017-05-26T03:35:16.294Z,5.48
2017-05-26T03:37:44.596Z,5.63
2017-05-26T03:40:12.909Z,5.48
2017-05-26T03:42:41.198Z,8.85
2017-05-26T03:45:09.516Z,5.73
2017-05-26T03:47:37.818Z,6.48
2017-05-26T03:50:06.124Z,5.47
2017-05-26T03:52:34.442Z,5.55
2017-05-26T03:55:02.737Z,4.90
2017-05-26T03:57:31.033Z,5.15
2017-05-26T03:59:59.345Z,4.63
2017-05-26T04:02:27.634Z,4.43
2017-05-26T04:04:55.935Z,5.10
2017-05-26T04:07:24.259Z,5.50
2017-05-26T04:09:52.562Z,5.43
2017-05-26T04:12:20.858Z,5.62
2017-05-26T04:14:49.190Z,5.30
2017-05-26T04:17:17.482Z,5.47
2017-05-26T04:19:45.788Z,4.77
2017-05-26T04:22:14.110Z,5.47
2017-05-26T04:24:42.418Z,4.85
2017-05-26T04:27:10.732Z,5.43
2017-05-26T04:29:39.050Z,4.82
2017-05-26T04:32:07.355Z,4.42
2017-05-26T04:34:35.676Z,4.60
2017-05-26T04:37:03.998Z,4.95
2017-05-26T04:39:32.291Z,4.75
2017-05-26T04:42:00.594Z,5.70
2017-05-26T04:44:28.919Z,4.05
2017-05-26T04:46:57.220Z,4.32
2017-05-26T04:49:25.524Z,4.28
2017-05-26T04:51:53.867Z,4.88
2017-05-26T04:54:22.171Z,7.10
2017-05-26T04:56:50.485Z,4.30
2017-05-26T04:59:18.811Z,4.66
2017-05-26T05:01:47.101Z,4.50
2017-05-26T05:04:15.398Z,4.36
2017-05-26T05:06:43.726Z,4.86
2017-05-26T05:09:12.038Z,4.92
2017-05-26T05:11:40.354Z,4.90
2017-05-26T05:14:08.658Z,4.80
2017-05-26T05:16:36.958Z,4.20
2017-05-26T05:19:05.277Z,5.98
2017-05-26T05:21:33.583Z,4.88
2017-05-26T05:24:01.875Z,4.74
2017-05-26T05:26:30.205Z,4.86
2017-05-26T05:28:58.514Z,5.20
2017-05-26T05:31:26.810Z,4.78
2017-05-26T05:33:55.164Z,4.60
2017-05-26T05:36:23.470Z,5.10
2017-05-26T05:38:51.784Z,4.70
2017-05-26T05:41:20.102Z,4.14
2017-05-26T05:43:48.393Z,5.60
2017-05-26T05:46:16.891Z,5.50
2017-05-26T05:48:45.194Z,5.36
2017-05-26T05:51:13.497Z,4.48
2017-05-26T05:53:41.829Z,4.92
2017-05-26T05:56:10.133Z,5.32
2017-05-26T05:58:38.453Z,5.12
2017-05-26T06:01:06.773Z,5.22
2017-05-26T06:03:35.078Z,5.00
2017-05-26T06:06:03.378Z,5.10
2017-05-26T06:08:31.708Z,4.64
2017-05-26T06:11:00.009Z,4.86
2017-05-26T06:13:28.313Z,4.56
2017-05-26T06:15:56.647Z,4.20
2017-05-26T06:18:24.947Z,5.04
2017-05-26T06:20:53.286Z,4.98
2017-05-26T06:23:21.630Z,4.48
2017-05-26T06:25:49.940Z,4.90
2017-05-26T06:28:18.238Z,5.36
2017-05-26T06:30:46.578Z,5.34
2017-05-26T06:33:14.879Z,4.22
2017-05-26T06:35:43.184Z,6.96
2017-05-26T06:38:11.531Z,5.08
2017-05-26T06:40:39.833Z,5.10
2017-05-26T06:43:08.140Z,4.58
2017-05-26T06:45:36.483Z,4.38
2017-05-26T06:48:04.011Z,5.14
2017-05-26T06:50:32.315Z,5.10
2017-05-26T06:53:00.650Z,4.58
2017-05-26T06:55:28.955Z,3.76
2017-05-26T06:57:57.254Z,5.26
2017-05-26T07:00:25.593Z,4.72
2017-05-26T07:02:53.891Z,5.70
2017-05-26T07:05:22.199Z,4.42
2017-05-26T07:07:50.520Z,5.14
2017-05-26T07:10:18.835Z,6.28
2017-05-26T07:12:46.372Z,4.62
2017-05-26T07:15:14.709Z,4.46
2017-05-26T07:17:43.014Z,4.50
2017-05-26T07:20:11.328Z,4.04
2017-05-26T07:22:39.653Z,3.10
2017-05-26T07:25:07.948Z,3.84
2017-05-26T07:27:36.265Z,3.56
2017-05-26T07:30:04.597Z,4.30
2017-05-26T07:32:32.905Z,3.30
2017-05-26T07:35:01.222Z,3.50
2017-05-26T07:37:29.527Z,3.82
2017-05-26T07:39:57.825Z,2.84
2017-05-26T07:42:26.143Z,2.82
2017-05-26T07:44:54.456Z,2.66
2017-05-26T07:47:22.844Z,2.84
2017-05-26T07:49:51.216Z,2.88
2017-05-26T07:52:19.550Z,3.56
2017-05-26T07:54:48.148Z,5.34
2017-05-26T07:57:17.946Z,3.46
2017-05-26T07:59:45.824Z,3.96
2017-05-26T08:02:14.126Z,6.82
2017-05-26T08:04:42.458Z,4.60
2017-05-26T08:07:10.763Z,3.32
2017-05-26T08:09:39.075Z,4.58
2017-05-26T08:12:07.394Z,4.60
2017-05-26T08:14:35.694Z,3.46
2017-05-26T08:17:04.049Z,2.80
2017-05-26T08:19:32.342Z,2.40
2017-05-26T08:22:00.673Z,4.28
2017-05-26T08:24:28.991Z,3.72
2017-05-26T08:26:57.296Z,2.82
2017-05-26T08:29:25.618Z,2.04
2017-05-26T08:31:53.937Z,3.52
2017-05-26T08:34:22.234Z,2.48
2017-05-26T08:36:50.540Z,3.04
2017-05-26T08:39:18.858Z,2.74
2017-05-26T08:41:47.188Z,3.44
2017-05-26T08:44:15.490Z,3.36
2017-05-26T08:46:43.809Z,2.60
2017-05-26T08:49:12.125Z,2.80
2017-05-26T08:51:40.438Z,3.90
2017-05-26T08:54:08.774Z,2.92
2017-05-26T08:56:37.083Z,3.06
2017-05-26T08:59:05.387Z,2.86
2017-05-26T09:01:33.715Z,2.68
2017-05-26T09:04:02.025Z,2.82
2017-05-26T09:06:30.336Z,2.94
2017-05-26T09:08:58.653Z,2.64
2017-05-26T09:11:26.959Z,3.78
2017-05-26T09:13:55.275Z,4.40
2017-05-26T09:16:23.612Z,2.70
2017-05-26T09:18:51.909Z,4.86
2017-05-26T09:21:20.273Z,2.80
2017-05-26T09:23:49.365Z,3.76
2017-05-26T09:26:17.678Z,3.56
2017-05-26T09:28:45.975Z,2.60
2017-05-26T09:31:14.312Z,2.98
2017-05-26T09:33:42.637Z,3.74
2017-05-26T09:36:10.944Z,2.44
2017-05-26T09:38:39.270Z,2.40
2017-05-26T09:41:07.579Z,3.60
2017-05-26T09:43:35.891Z,2.50
2017-05-26T09:46:04.233Z,2.58
2017-05-26T09:48:32.530Z,2.62
2017-05-26T09:51:00.866Z,2.78
2017-05-26T09:53:29.182Z,2.80
2017-05-26T09:55:57.507Z,3.24
2017-05-26T09:58:25.853Z,3.90
2017-05-26T10:00:54.158Z,2.10
2017-05-26T10:03:22.454Z,2.76
2017-05-26T10:05:51.617Z,3.28
2017-05-26T10:08:19.914Z,3.08
2017-05-26T10:10:48.219Z,4.02
2017-05-26T10:13:16.548Z,2.68
2017-05-26T10:15:44.886Z,2.28
2017-05-26T10:18:13.270Z,4.44
2017-05-26T10:20:41.588Z,3.10
2017-05-26T10:23:09.894Z,2.74
2017-05-26T10:25:38.235Z,2.78
2017-05-26T10:28:06.562Z,4.16
2017-05-26T10:30:34.880Z,2.82
2017-05-26T10:33:03.203Z,3.12
2017-05-26T10:35:31.521Z,2.08
2017-05-26T10:38:00.671Z,2.16
2017-05-26T10:40:29.011Z,2.08
2017-05-26T10:42:57.311Z,2.60
2017-05-26T10:45:25.634Z,5.22
2017-05-26T10:47:53.963Z,2.10
2017-05-26T10:50:22.263Z,2.30
2017-05-26T10:52:49.809Z,2.42
2017-05-26T10:55:18.198Z,3.12
2017-05-26T10:57:46.510Z,2.10
2017-05-26T11:00:14.815Z,3.04
2017-05-26T11:02:43.138Z,4.08
2017-05-26T11:05:11.435Z,2.34
2017-05-26T11:07:39.744Z,2.12
2017-05-26T11:10:08.092Z,2.08
2017-05-26T11:12:36.443Z,2.60
2017-05-26T11:15:04.742Z,1.92
2017-05-26T11:17:33.087Z,1.70
2017-05-26T11:20:01.397Z,2.08
2017-05-26T11:22:29.702Z,2.88
2017-05-26T11:24:58.027Z,2.50
2017-05-26T11:27:26.372Z,2.64
2017-05-26T11:29:54.693Z,1.82
2017-05-26T11:32:23.040Z,2.18
2017-05-26T11:34:51.329Z,4.24
2017-05-26T11:37:19.642Z,3.00
2017-05-26T11:39:48.015Z,3.74
2017-05-26T11:42:16.315Z,2.50
2017-05-26T11:44:44.613Z,2.76
2017-05-26T11:47:12.950Z,2.34
2017-05-26T11:49:41.254Z,2.60
2017-05-26T11:52:09.549Z,2.74
2017-05-26T11:54:37.873Z,2.52
2017-05-26T11:57:06.178Z,3.00
2017-05-26T11:59:35.163Z,2.70
2017-05-26T12:02:03.487Z,2.90
2017-05-26T12:04:31.788Z,2.50
2017-05-26T12:07:00.096Z,3.14
2017-05-26T12:09:28.425Z,2.44
2017-05-26T12:11:56.726Z,2.92
2017-05-26T12:14:25.042Z,3.24
2017-05-26T12:16:53.363Z,2.42
2017-05-26T12:19:21.672Z,2.88
2017-05-26T12:21:49.974Z,2.68
2017-05-26T12:24:18.306Z,7.02
2017-05-26T12:26:46.620Z,2.70
2017-05-26T12:29:14.935Z,4.76
2017-05-26T12:31:43.349Z,3.22
2017-05-26T12:34:11.662Z,2.96
2017-05-26T12:36:39.963Z,2.72
2017-05-26T12:39:08.293Z,2.42
2017-05-26T12:41:36.631Z,4.98
2017-05-26T12:44:04.943Z,3.34
2017-05-26T12:46:33.277Z,2.00
2017-05-26T12:49:01.569Z,2.30
2017-05-26T12:51:29.865Z,2.54
2017-05-26T12:53:58.190Z,2.38
2017-05-26T12:56:26.511Z,2.26
2017-05-26T12:58:54.802Z,2.34
2017-05-26T13:01:23.125Z,2.30
2017-05-26T13:03:51.454Z,2.14
2017-05-26T13:06:19.770Z,3.16
2017-05-26T13:08:48.089Z,2.22
2017-05-26T13:11:16.386Z,2.78
2017-05-26T13:13:44.709Z,2.88
2017-05-26T13:16:13.038Z,2.76
2017-05-26T13:18:41.375Z,2.60
2017-05-26T13:21:09.710Z,2.36
2017-05-26T13:23:38.031Z,2.80
2017-05-26T13:26:06.349Z,2.30
2017-05-26T13:28:34.657Z,2.72
2017-05-26T13:31:02.967Z,2.74
2017-05-26T13:33:31.261Z,2.56
2017-05-26T13:35:59.605Z,2.64
2017-05-26T13:38:27.982Z,2.84
2017-05-26T13:40:56.280Z,5.00
2017-05-26T13:43:24.583Z,3.66
2017-05-26T13:45:52.905Z,2.90
2017-05-26T13:48:21.202Z,2.86
2017-05-26T13:50:49.534Z,2.94
2017-05-26T13:53:17.834Z,2.60
2017-05-26T13:55:46.163Z,3.44
2017-05-26T13:58:14.457Z,2.92
2017-05-26T14:00:43.639Z,3.04
2017-05-26T14:03:11.971Z,4.44
2017-05-26T14:05:40.271Z,2.60
2017-05-26T14:08:09.664Z,3.04
2017-05-26T14:10:37.986Z,2.80
2017-05-26T14:13:06.295Z,2.80
2017-05-26T14:15:34.599Z,2.90
2017-05-26T14:18:02.931Z,2.82
2017-05-26T14:20:31.235Z,3.00
2017-05-26T14:22:59.551Z,3.72
2017-05-26T14:25:27.843Z,3.02
2017-05-26T14:27:56.140Z,2.80
2017-05-26T14:30:24.464Z,2.70
2017-05-26T14:32:52.758Z,2.68
2017-05-26T14:35:21.058Z,2.86
2017-05-26T14:37:49.387Z,2.30
2017-05-26T14:40:17.687Z,2.72
2017-05-26T14:42:45.988Z,3.84
2017-05-26T14:45:14.308Z,2.98
2017-05-26T14:47:43.142Z,4.40
2017-05-26T14:50:12.206Z,5.18
2017-05-26T14:52:40.523Z,2.80
2017-05-26T14:55:08.836Z,4.24
2017-05-26T14:57:37.144Z,3.02
2017-05-26T15:00:05.453Z,2.74
2017-05-26T15:02:34.002Z,2.54
2017-05-26T15:05:02.362Z,2.84
2017-05-26T15:07:30.679Z,2.52
2017-05-26T15:09:58.984Z,2.50
2017-05-26T15:12:27.282Z,2.60
2017-05-26T15:14:55.631Z,2.34
2017-05-26T15:17:23.929Z,3.24
2017-05-26T15:19:52.239Z,2.68
2017-05-26T15:22:20.551Z,2.72
2017-05-26T15:24:48.844Z,3.60
2017-05-26T15:27:17.151Z,2.58
2017-05-26T15:29:45.519Z,3.72
2017-05-26T15:32:13.828Z,2.58
2017-05-26T15:34:42.138Z,2.82
2017-05-26T15:37:10.464Z,2.64
2017-05-26T15:39:38.770Z,2.50
2017-05-26T15:42:07.082Z,2.38
2017-05-26T15:44:35.395Z,2.98
2017-05-26T15:47:03.698Z,2.40
2017-05-26T15:49:31.992Z,2.92
2017-05-26T15:52:00.327Z,2.34
2017-05-26T15:54:28.819Z,3.24
2017-05-26T15:56:57.126Z,2.56
2017-05-26T15:59:25.446Z,2.62
2017-05-26T16:01:53.762Z,2.12
2017-05-26T16:04:22.060Z,2.42
2017-05-26T16:06:50.375Z,2.70
2017-05-26T16:09:18.698Z,2.12
2017-05-26T16:11:46.998Z,2.50
2017-05-26T16:14:15.315Z,2.56
2017-05-26T16:16:43.615Z,2.06
2017-05-26T16:19:11.932Z,2.88
2017-05-26T16:21:40.262Z,2.04
2017-05-26T16:24:08.599Z,3.26
2017-05-26T16:26:36.899Z,2.32
2017-05-26T16:29:05.218Z,3.28
2017-05-26T16:31:33.524Z,2.80
2017-05-26T16:34:01.824Z,3.08
2017-05-26T16:36:30.146Z,2.64
2017-05-26T16:38:58.447Z,3.26
2017-05-26T16:41:26.742Z,2.60
2017-05-26T16:43:55.080Z,3.94
2017-05-26T16:46:23.398Z,2.94
2017-05-26T16:48:52.126Z,2.50
2017-05-26T16:51:20.454Z,2.76
2017-05-26T16:53:48.751Z,2.72
2017-05-26T16:56:17.087Z,2.68
2017-05-26T16:58:45.412Z,2.70
2017-05-26T17:01:13.711Z,3.06
2017-05-26T17:03:42.035Z,2.48
2017-05-26T17:06:10.356Z,2.54
2017-05-26T17:08:38.663Z,2.10
2017-05-26T17:11:06.962Z,2.72
2017-05-26T17:13:35.295Z,2.62
2017-05-26T17:16:03.602Z,2.52
2017-05-26T17:18:31.895Z,2.30
2017-05-26T17:21:00.230Z,3.02
2017-05-26T17:23:28.538Z,4.18
2017-05-26T17:25:56.842Z,3.80
2017-05-26T17:28:25.170Z,2.76
2017-05-26T17:30:53.477Z,3.18
2017-05-26T17:33:21.780Z,2.44
2017-05-26T17:35:50.132Z,3.30
2017-05-26T17:38:18.437Z,3.10
2017-05-26T17:40:46.790Z,3.52
2017-05-26T17:43:15.117Z,3.20
2017-05-26T17:45:43.424Z,3.06
2017-05-26T17:48:11.731Z,3.02
2017-05-26T17:50:40.053Z,2.88
2017-05-26T17:53:08.341Z,2.66
2017-05-26T17:55:36.643Z,3.02
2017-05-26T17:58:04.969Z,2.38
2017-05-26T18:00:33.269Z,3.18
2017-05-26T18:03:01.574Z,2.42
2017-05-26T18:05:29.975Z,2.72
2017-05-26T18:07:58.274Z,2.72
2017-05-26T18:10:26.587Z,3.30
2017-05-26T18:12:54.910Z,3.34
2017-05-26T18:15:23.222Z,3.42
2017-05-26T18:17:51.526Z,3.68
2017-05-26T18:20:19.845Z,3.30
2017-05-26T18:22:48.151Z,3.26
2017-05-26T18:25:16.454Z,3.14
2017-05-26T18:27:44.782Z,3.36
2017-05-26T18:30:13.107Z,3.54
2017-05-26T18:32:41.415Z,4.40
2017-05-26T18:35:09.741Z,3.78
2017-05-26T18:37:38.035Z,3.48
2017-05-26T18:40:06.328Z,2.82
2017-05-26T18:42:34.674Z,3.52
2017-05-26T18:45:02.972Z,3.40
2017-05-26T18:47:31.265Z,5.00
2017-05-26T18:50:00.214Z,6.40
2017-05-26T18:52:28.524Z,5.42
2017-05-26T18:54:56.818Z,4.94
2017-05-26T18:57:25.149Z,6.54
2017-05-26T18:59:53.448Z,3.82
2017-05-26T19:02:21.743Z,4.14
2017-05-26T19:04:50.058Z,3.50
2017-05-26T19:07:18.375Z,4.78
2017-05-26T19:09:46.691Z,4.66
2017-05-26T19:12:15.013Z,4.16
2017-05-26T19:14:43.323Z,4.38
2017-05-26T19:17:11.629Z,4.88
2017-05-26T19:19:39.961Z,4.34
2017-05-26T19:22:08.276Z,5.10
2017-05-26T19:24:36.576Z,4.02
2017-05-26T19:27:04.917Z,5.62
2017-05-26T19:29:33.237Z,4.80
2017-05-26T19:32:01.542Z,4.47
2017-05-26T19:34:30.182Z,4.57
2017-05-26T19:36:58.527Z,4.70
2017-05-26T19:39:26.831Z,5.45
2017-05-26T19:41:55.167Z,3.68
2017-05-26T19:44:23.473Z,4.65
2017-05-26T19:46:51.781Z,4.78
2017-05-26T19:49:20.110Z,5.48
2017-05-26T19:51:48.414Z,4.70
2017-05-26T19:54:16.717Z,5.00
2017-05-26T19:56:45.042Z,5.12
2017-05-26T19:59:13.367Z,5.88
2017-05-26T20:01:40.899Z,4.83
2017-05-26T20:04:09.234Z,5.27
2017-05-26T20:06:37.525Z,5.48
2017-05-26T20:09:05.925Z,5.27
2017-05-26T20:11:34.243Z,5.00
2017-05-26T20:14:02.561Z,5.50
2017-05-26T20:16:30.857Z,7.33
2017-05-26T20:18:59.190Z,5.23
2017-05-26T20:21:27.511Z,4.97
2017-05-26T20:23:55.806Z,4.70
2017-05-26T20:26:24.130Z,5.20
2017-05-26T20:28:52.426Z,6.00
2017-05-26T20:31:20.734Z,4.30
2017-05-26T20:33:49.100Z,4.70
2017-05-26T20:36:17.401Z,5.92
2017-05-26T20:38:45.698Z,6.05
2017-05-26T20:41:14.027Z,8.02
2017-05-26T20:43:42.332Z,5.83
2017-05-26T20:46:10.626Z,8.10
2017-05-26T20:48:38.965Z,6.92
2017-05-26T20:51:07.271Z,6.52
2017-05-26T20:53:35.578Z,7.13
2017-05-26T20:56:03.943Z,7.18
2017-05-26T20:58:32.247Z,6.47
2017-05-26T21:01:00.543Z,7.68
2017-05-26T21:03:28.869Z,6.45
2017-05-26T21:05:57.174Z,7.65
2017-05-26T21:08:25.462Z,7.18
2017-05-26T21:10:53.780Z,7.95
2017-05-26T21:13:22.722Z,7.10
2017-05-26T21:15:51.820Z,6.88
2017-05-26T21:18:20.141Z,10.13
2017-05-26T21:20:48.443Z,9.80
2017-05-26T21:23:16.734Z,7.82
2017-05-26T21:25:45.070Z,6.75
2017-05-26T21:28:13.368Z,8.38
2017-05-26T21:30:41.702Z,8.00
2017-05-26T21:33:10.024Z,7.65
2017-05-26T21:35:38.319Z,7.67
2017-05-26T21:38:06.642Z,7.33
2017-05-26T21:40:34.985Z,6.68
2017-05-26T21:43:03.295Z,6.65
2017-05-26T21:45:31.604Z,6.90
2017-05-26T21:47:59.922Z,6.53
2017-05-26T21:50:28.229Z,5.88
2017-05-26T21:52:56.530Z,7.97
2017-05-26T21:55:24.837Z,6.47
2017-05-26T21:57:53.126Z,6.90
2017-05-26T22:00:21.425Z,6.42
2017-05-26T22:02:49.745Z,7.00
2017-05-26T22:05:18.102Z,7.13
2017-05-26T22:07:46.409Z,6.42
2017-05-26T22:10:14.735Z,7.63
2017-05-26T22:12:43.031Z,5.50
2017-05-26T22:15:11.346Z,8.05
2017-05-26T22:17:39.673Z,6.40
2017-05-26T22:20:07.971Z,6.15
2017-05-26T22:22:36.283Z,6.50
2017-05-26T22:25:04.599Z,7.73
2017-05-26T22:27:32.895Z,5.90
2017-05-26T22:30:01.187Z,5.27
2017-05-26T22:32:29.503Z,6.65
2017-05-26T22:34:57.795Z,6.33
2017-05-26T22:37:26.146Z,6.05
2017-05-26T22:39:54.473Z,6.05
2017-05-26T22:42:22.787Z,5.77
2017-05-26T22:44:51.086Z,6.22
2017-05-26T22:47:19.402Z,5.55
2017-05-26T22:49:47.726Z,6.33
2017-05-26T22:52:16.027Z,6.12
2017-05-26T22:54:44.363Z,6.20
2017-05-26T22:57:12.675Z,6.07
2017-05-26T22:59:40.974Z,7.32
2017-05-26T23:02:09.291Z,6.37
2017-05-26T23:04:37.591Z,5.68
2017-05-26T23:07:05.888Z,6.57
2017-05-26T23:09:34.205Z,6.28
2017-05-26T23:12:03.254Z,5.78
2017-05-26T23:14:32.136Z,6.98
2017-05-26T23:17:00.463Z,6.00
2017-05-26T23:19:28.762Z,6.85
2017-05-26T23:21:57.057Z,5.43
2017-05-26T23:24:25.389Z,5.80
2017-05-26T23:26:53.692Z,6.62
2017-05-26T23:29:22.056Z,5.98
2017-05-26T23:31:50.371Z,6.17
2017-05-26T23:34:18.691Z,6.17
2017-05-26T23:36:46.987Z,6.45
2017-05-26T23:39:15.305Z,6.15
2017-05-26T23:41:43.599Z,6.03
2017-05-26T23:44:11.894Z,6.13
2017-05-26T23:46:40.213Z,5.98
2017-05-26T23:49:08.508Z,6.45
2017-05-26T23:51:36.823Z,6.02
2017-05-26T23:54:05.163Z,6.30
2017-05-26T23:56:33.463Z,7.47
2017-05-26T23:59:01.782Z,6.68
